PROFILE

 METAR AND TAF INFORMATION
ADDS - METARS form results

(0104 UTC 20 November 2022)
http://aviationweather.gov/metar/data/
 
GCXO 200100Z AUTO 34008KT 300V020 9000 FEW020 BKN026 OVC032 15/12 Q1027
GCXO 200030Z AUTO 35008KT 300V020 9999 FEW021 SCT028 OVC034 15/11 Q1027
TAF GCXO 192000Z 1921/2021 33010KT 9999 BKN015 TX17/2014Z TN14/2006Z TEMPO 1921/2009 03007KT PROB40 TEMPO 1921/2009 4500 DZ BKN007 

 AIRPORT MAP

 RUNWAY INFORMATION
Runway 12 Runway length 11155 ft Runway width 148 ft
Runway elevation 2060 ft Runway displaced threshold 0 ft Runway heading 111
Runway 30 Runway length 11155 ft Runway width 148 ft
Runway elevation 2002 ft Runway displaced threshold 0 ft Runway heading 291

 AIRPORT FREQUENCIES
Type APP Name APP Frequency 119.7 MHZ
Type ATIS Name ATIS Frequency 118.575 MHZ
Type GND Name GND Frequency 121.7 MHZ
Type TWR Name TWR Frequency 118.7 MHZ

 AIRPORT NEAR NAVIGATION AIDS
Type VOR-DME Name Tenerife Norte Frequency 117700 KHZ
Type NDB Name Tenerife Norte Frequency 410 KHZ